Terminal Aerodrome Forecast
Issued by NWS

Home | Current Version | Previous Version | Text Only | Print | Product List | Glossary On
Versions: 1 2 3 4 5 6 7 8 9 10 11 12 13 14
542
FTUS42 KMHX 111120
TAFPGV
TAF
KPGV 111120Z 1112/1212 29007KT P6SM SKC
     FM111400 30010G17KT P6SM SKC
     FM112300 VRB03KT P6SM SKC
     FM121000 05003KT P6SM BKN100
      AMD LTD TO CLD VIS AND WIND=

USA.gov is the U.S. government's official web portal to all federal, state and local government web resources and services.